New Delhi Safdarjung, India

12:54 PM IST on July 23, 2014 (GMT +0530)
New Delhi - GK2 (IDELHINE8) Elev 810 ft | 28.53 °N, 77.24 °E | Change Station

Current weather conditions updated 4 seconds ago

Haze
Haze
88.9 °F
Feels Like 107 °F
N
1.0
Wind Variable Wind from East
Gusts 5.0 mph

Today is forecast to be nearly the same temperature as yesterday.

Today
High -- | Low -- °F
--% Chance of Precip.
Yesterday
High -- | Low -- °F
Precip. -- in
5:37 AM 7:17 PM
Waning Crescent, 12% visible
Pressure 29.53 in
Visibility 2.8 miles
Clouds Scattered Clouds 3000 ft
Mostly Cloudy 10000 ft
Heat Index 107 °F
Dew Point 80 °F
Humidity 76%
Rainfall 0.00 in
Snow Depth Not available.
UV 8.6 out of 12
Pollen Not available.
Air Quality Not available.
Flu Activity Not available.
METAR VIDP 230700Z 12008G18KT 4500 HZ SCT030 BKN100 32/24 Q1000 NOSIG

More Conditions Fewer Conditions

Pressure 29.53 in
Visibility 2.8 miles
Clouds Scattered Clouds 3000 ft
Mostly Cloudy 10000 ft
Heat Index 107 °F
Dew Point 80 °F
Humidity 76%
Rainfall 0.00 in
Snow Depth Not available.
UV 8.6 out of 12
Pollen Not available.
Air Quality Not available.
Flu Activity Not available.
METAR VIDP 230700Z 12008G18KT 4500 HZ SCT030 BKN100 32/24 Q1000 NOSIG

More Conditions Fewer Conditions

10-Day Weather Forecast

Almanac

Astronomy

Jul. 23, 2014 Rise Set
Actual Time 5:37 AM IST 7:17 PM IST
Civil Twilight 5:11 AM IST 7:43 PM IST
Nautical Twilight 4:40 AM IST 8:14 PM IST
Astronomical Twilight 4:07 AM IST 8:47 PM IST
Moon 2:32 AM IST 4:24 PM IST
Length of Visible Light 14h 32m
Length of Day
13h 40m
Tomorrow will be 1m 3s shorter.
Waning Crescent, 12% of the Moon is Illuminated
Today
Waning Crescent
Jul 26
New
Aug 3
First Quarter
Aug 10
Full
Aug 17
Last Quarter

Yesterday's Extremes

Country Highs Country Lows

Community

WunderPhotos

Upload Photos

1,736,527 photos uploaded!

Nearby

Snow Depth

Not available.

Earthquake Activity

City Distance Mag. Time & Date
No recent earthquake activity has been reported nearby.
Minimum magnitude displayed is 2.5.

Coastal Water Temperatures

Place Temperature
No Stations Reporting

Nearby Weather Stations

Station Location Temp. Heat Index Dew Point Humidity Wind Precip. Elev Updated Type
New Delhi - GK2, New Delhi 88.9 °F 107 °F 80 °F 76% East  at  1.0 mph 0.00 in / hr 810 ft 12:54 PM IST Rapid Fire

Show More Stations Show Fewer Stations